Damon, Texas
Current Conditions -  °F | °C
As of 12:53 PM on Saturday 25 Oct 2014 (Local Time) from KLBX Reporting Station
Clear Clear  
Wind Chill: 78°   Ceiling: Unl
Heat Index: 79°   Visibility: 10mi
Dew Point: 54°   Wind: 6mph
Humidity: 43%   Direction: 130°SE
Pressure: 30.16"   Gusts: NA
Location:  29.29°N, 95.74°W
Report Text: KLBX 251753Z AUTO 13005KT 10SM CLR 26/12 A3016 RMK AO2 SLP213 T02560122 10256 20100 58007
Loading
Personal Weather Stations






























Interactive Weather Map
Tropical Storm Tracking
New forecast layout! Learn more

10-Day Weather Forecast

Advertisements
Track Severe Weather on mobile